sensor_id;sensor_type;location;lat;lon;timestamp;P1;durP1;ratioP1;P2;durP2;ratioP2
65769;SDS011;52512;47.650;8.578;2023-04-24T00:00:54;1.17;;;1.10;;
65769;SDS011;52512;47.650;8.578;2023-04-24T00:03:26;4.65;;;1.52;;
65769;SDS011;52512;47.650;8.578;2023-04-24T00:05:52;2.58;;;1.80;;
65769;SDS011;52512;47.650;8.578;2023-04-24T00:08:18;2.95;;;1.80;;
65769;SDS011;52512;47.650;8.578;2023-04-24T00:10:44;1.73;;;1.30;;
65769;SDS011;52512;47.650;8.578;2023-04-24T00:13:10;1.50;;;1.40;;
65769;SDS011;52512;47.650;8.578;2023-04-24T00:15:35;2.40;;;1.57;;
65769;SDS011;52512;47.650;8.578;2023-04-24T00:18:01;1.70;;;1.60;;
65769;SDS011;52512;47.650;8.578;2023-04-24T00:20:27;2.27;;;1.87;;
65769;SDS011;52512;47.650;8.578;2023-04-24T00:22:54;1.85;;;1.42;;
65769;SDS011;52512;47.650;8.578;2023-04-24T00:25:20;1.53;;;1.27;;
65769;SDS011;52512;47.650;8.578;2023-04-24T00:27:46;3.33;;;1.70;;
65769;SDS011;52512;47.650;8.578;2023-04-24T00:30:11;2.03;;;1.40;;
65769;SDS011;52512;47.650;8.578;2023-04-24T00:32:37;2.37;;;1.80;;
65769;SDS011;52512;47.650;8.578;2023-04-24T00:35:03;1.67;;;1.57;;
65769;SDS011;52512;47.650;8.578;2023-04-24T00:37:30;1.55;;;1.45;;
65769;SDS011;52512;47.650;8.578;2023-04-24T00:39:56;1.30;;;1.20;;
65769;SDS011;52512;47.650;8.578;2023-04-24T00:42:22;5.90;;;1.73;;
65769;SDS011;52512;47.650;8.578;2023-04-24T00:44:48;1.63;;;1.40;;
65769;SDS011;52512;47.650;8.578;2023-04-24T00:47:14;1.30;;;1.20;;
65769;SDS011;52512;47.650;8.578;2023-04-24T00:49:40;13.02;;;2.30;;
65769;SDS011;52512;47.650;8.578;2023-04-24T00:52:05;1.60;;;1.20;;
65769;SDS011;52512;47.650;8.578;2023-04-24T00:54:33;1.70;;;1.50;;
65769;SDS011;52512;47.650;8.578;2023-04-24T00:57:00;1.15;;;1.02;;
65769;SDS011;52512;47.650;8.578;2023-04-24T00:59:26;1.42;;;1.33;;
65769;SDS011;52512;47.650;8.578;2023-04-24T01:01:52;1.00;;;1.00;;
65769;SDS011;52512;47.650;8.578;2023-04-24T01:04:18;1.73;;;1.00;;
65769;SDS011;52512;47.650;8.578;2023-04-24T01:06:44;1.67;;;1.00;;
65769;SDS011;52512;47.650;8.578;2023-04-24T01:09:10;5.70;;;0.90;;
65769;SDS011;52512;47.650;8.578;2023-04-24T01:11:37;1.60;;;1.00;;
65769;SDS011;52512;47.650;8.578;2023-04-24T01:14:03;1.15;;;1.15;;
65769;SDS011;52512;47.650;8.578;2023-04-24T01:16:29;0.97;;;0.83;;
65769;SDS011;52512;47.650;8.578;2023-04-24T01:18:54;0.80;;;0.80;;
65769;SDS011;52512;47.650;8.578;2023-04-24T01:21:20;1.00;;;1.00;;
65769;SDS011;52512;47.650;8.578;2023-04-24T01:23:46;1.70;;;1.20;;
65769;SDS011;52512;47.650;8.578;2023-04-24T01:26:15;2.80;;;1.47;;
65769;SDS011;52512;47.650;8.578;2023-04-24T01:28:42;2.58;;;1.30;;
65769;SDS011;52512;47.650;8.578;2023-04-24T01:31:08;0.83;;;0.83;;
65769;SDS011;52512;47.650;8.578;2023-04-24T01:33:33;8.13;;;1.07;;
65769;SDS011;52512;47.650;8.578;2023-04-24T01:35:59;1.27;;;1.10;;
65769;SDS011;52512;47.650;8.578;2023-04-24T01:38:25;1.10;;;1.00;;
65769;SDS011;52512;47.650;8.578;2023-04-24T01:40:51;1.57;;;1.00;;
65769;SDS011;52512;47.650;8.578;2023-04-24T01:43:18;2.05;;;1.00;;
65769;SDS011;52512;47.650;8.578;2023-04-24T01:45:44;0.80;;;0.80;;
65769;SDS011;52512;47.650;8.578;2023-04-24T01:48:10;1.13;;;1.13;;
65769;SDS011;52512;47.650;8.578;2023-04-24T01:50:37;0.80;;;0.80;;
65769;SDS011;52512;47.650;8.578;2023-04-24T01:53:03;2.00;;;0.83;;
65769;SDS011;52512;47.650;8.578;2023-04-24T01:55:29;1.10;;;0.93;;
65769;SDS011;52512;47.650;8.578;2023-04-24T01:57:55;0.97;;;0.80;;
65769;SDS011;52512;47.650;8.578;2023-04-24T02:00:21;2.25;;;0.70;;
65769;SDS011;52512;47.650;8.578;2023-04-24T02:02:49;1.77;;;0.80;;
65769;SDS011;52512;47.650;8.578;2023-04-24T02:05:14;3.23;;;1.00;;
65769;SDS011;52512;47.650;8.578;2023-04-24T02:07:40;2.93;;;1.03;;
65769;SDS011;52512;47.650;8.578;2023-04-24T02:10:06;0.80;;;0.80;;
65769;SDS011;52512;47.650;8.578;2023-04-24T02:12:32;1.45;;;1.10;;
65769;SDS011;52512;47.650;8.578;2023-04-24T02:14:58;3.58;;;0.80;;
65769;SDS011;52512;47.650;8.578;2023-04-24T02:17:23;3.90;;;0.73;;
65769;SDS011;52512;47.650;8.578;2023-04-24T02:19:49;0.93;;;0.90;;
65769;SDS011;52512;47.650;8.578;2023-04-24T02:22:15;0.80;;;0.80;;
65769;SDS011;52512;47.650;8.578;2023-04-24T02:24:41;2.50;;;1.10;;
65769;SDS011;52512;47.650;8.578;2023-04-24T02:27:06;0.70;;;0.70;;
65769;SDS011;52512;47.650;8.578;2023-04-24T02:29:32;2.70;;;0.80;;
65769;SDS011;52512;47.650;8.578;2023-04-24T02:31:58;0.80;;;0.80;;
65769;SDS011;52512;47.650;8.578;2023-04-24T02:34:23;0.80;;;0.80;;
65769;SDS011;52512;47.650;8.578;2023-04-24T02:36:49;0.60;;;0.60;;
65769;SDS011;52512;47.650;8.578;2023-04-24T02:39:15;0.70;;;0.70;;
65769;SDS011;52512;47.650;8.578;2023-04-24T02:41:41;0.70;;;0.70;;
65769;SDS011;52512;47.650;8.578;2023-04-24T02:44:07;1.25;;;0.88;;
65769;SDS011;52512;47.650;8.578;2023-04-24T02:46:33;0.73;;;0.73;;
65769;SDS011;52512;47.650;8.578;2023-04-24T02:48:59;1.00;;;0.80;;
65769;SDS011;52512;47.650;8.578;2023-04-24T02:51:25;0.70;;;0.70;;
65769;SDS011;52512;47.650;8.578;2023-04-24T02:53:51;0.85;;;0.85;;
65769;SDS011;52512;47.650;8.578;2023-04-24T02:56:17;1.10;;;1.00;;
65769;SDS011;52512;47.650;8.578;2023-04-24T02:58:43;1.07;;;0.97;;
65769;SDS011;52512;47.650;8.578;2023-04-24T03:01:08;0.80;;;0.80;;
65769;SDS011;52512;47.650;8.578;2023-04-24T03:03:37;0.70;;;0.70;;
65769;SDS011;52512;47.650;8.578;2023-04-24T03:06:04;1.35;;;0.95;;
65769;SDS011;52512;47.650;8.578;2023-04-24T03:08:32;1.00;;;1.00;;
65769;SDS011;52512;47.650;8.578;2023-04-24T03:10:58;1.52;;;1.42;;
65769;SDS011;52512;47.650;8.578;2023-04-24T03:13:24;0.90;;;0.90;;
65769;SDS011;52512;47.650;8.578;2023-04-24T03:15:50;1.10;;;0.80;;
65769;SDS011;52512;47.650;8.578;2023-04-24T03:18:16;1.53;;;0.80;;
65769;SDS011;52512;47.650;8.578;2023-04-24T03:20:41;0.70;;;0.70;;
65769;SDS011;52512;47.650;8.578;2023-04-24T03:23:07;2.43;;;0.90;;
65769;SDS011;52512;47.650;8.578;2023-04-24T03:25:33;0.93;;;0.90;;
65769;SDS011;52512;47.650;8.578;2023-04-24T03:27:58;0.83;;;0.83;;
65769;SDS011;52512;47.650;8.578;2023-04-24T03:30:24;1.73;;;0.87;;
65769;SDS011;52512;47.650;8.578;2023-04-24T03:32:50;0.87;;;0.87;;
65769;SDS011;52512;47.650;8.578;2023-04-24T03:35:15;5.40;;;1.13;;
65769;SDS011;52512;47.650;8.578;2023-04-24T03:37:41;0.83;;;0.80;;
65769;SDS011;52512;47.650;8.578;2023-04-24T03:40:07;1.00;;;1.00;;
65769;SDS011;52512;47.650;8.578;2023-04-24T03:42:33;0.68;;;0.68;;
65769;SDS011;52512;47.650;8.578;2023-04-24T03:44:58;0.70;;;0.70;;
65769;SDS011;52512;47.650;8.578;2023-04-24T03:47:25;0.80;;;0.80;;
65769;SDS011;52512;47.650;8.578;2023-04-24T03:49:51;1.27;;;0.90;;
65769;SDS011;52512;47.650;8.578;2023-04-24T03:52:17;0.82;;;0.82;;
65769;SDS011;52512;47.650;8.578;2023-04-24T03:54:42;0.70;;;0.70;;
65769;SDS011;52512;47.650;8.578;2023-04-24T03:57:08;0.80;;;0.80;;
65769;SDS011;52512;47.650;8.578;2023-04-24T03:59:34;4.43;;;1.00;;
65769;SDS011;52512;47.650;8.578;2023-04-24T04:01:59;0.70;;;0.70;;
65769;SDS011;52512;47.650;8.578;2023-04-24T04:04:25;0.87;;;0.87;;
65769;SDS011;52512;47.650;8.578;2023-04-24T04:06:50;0.80;;;0.80;;
65769;SDS011;52512;47.650;8.578;2023-04-24T04:09:17;0.82;;;0.82;;
65769;SDS011;52512;47.650;8.578;2023-04-24T04:11:42;1.20;;;1.10;;
65769;SDS011;52512;47.650;8.578;2023-04-24T04:14:08;0.63;;;0.63;;
65769;SDS011;52512;47.650;8.578;2023-04-24T04:16:34;0.60;;;0.60;;
65769;SDS011;52512;47.650;8.578;2023-04-24T04:19:01;0.77;;;0.77;;
65769;SDS011;52512;47.650;8.578;2023-04-24T04:21:28;0.93;;;0.93;;
65769;SDS011;52512;47.650;8.578;2023-04-24T04:23:54;1.10;;;1.00;;
65769;SDS011;52512;47.650;8.578;2023-04-24T04:26:19;0.80;;;0.80;;
65769;SDS011;52512;47.650;8.578;2023-04-24T04:28:46;0.73;;;0.73;;
65769;SDS011;52512;47.650;8.578;2023-04-24T04:31:12;0.93;;;0.80;;
65769;SDS011;52512;47.650;8.578;2023-04-24T04:33:38;2.97;;;1.00;;
65769;SDS011;52512;47.650;8.578;2023-04-24T04:36:04;1.17;;;1.00;;
65769;SDS011;52512;47.650;8.578;2023-04-24T04:38:30;0.80;;;0.80;;
65769;SDS011;52512;47.650;8.578;2023-04-24T04:40:56;0.70;;;0.70;;
65769;SDS011;52512;47.650;8.578;2023-04-24T04:43:22;2.50;;;1.13;;
65769;SDS011;52512;47.650;8.578;2023-04-24T04:45:51;0.90;;;0.90;;
65769;SDS011;52512;47.650;8.578;2023-04-24T04:48:19;0.98;;;0.80;;
65769;SDS011;52512;47.650;8.578;2023-04-24T04:50:45;0.80;;;0.80;;
65769;SDS011;52512;47.650;8.578;2023-04-24T04:53:10;0.80;;;0.80;;
65769;SDS011;52512;47.650;8.578;2023-04-24T04:55:36;4.00;;;1.83;;
65769;SDS011;52512;47.650;8.578;2023-04-24T04:58:02;0.80;;;0.80;;
65769;SDS011;52512;47.650;8.578;2023-04-24T05:00:28;0.80;;;0.80;;
65769;SDS011;52512;47.650;8.578;2023-04-24T05:02:58;0.90;;;0.90;;
65769;SDS011;52512;47.650;8.578;2023-04-24T05:05:24;0.90;;;0.90;;
65769;SDS011;52512;47.650;8.578;2023-04-24T05:07:50;1.20;;;1.10;;
65769;SDS011;52512;47.650;8.578;2023-04-24T05:10:16;1.00;;;1.00;;
65769;SDS011;52512;47.650;8.578;2023-04-24T05:12:41;0.80;;;0.80;;
65769;SDS011;52512;47.650;8.578;2023-04-24T05:15:07;1.00;;;1.00;;
65769;SDS011;52512;47.650;8.578;2023-04-24T05:17:33;5.83;;;1.00;;
65769;SDS011;52512;47.650;8.578;2023-04-24T05:19:59;5.32;;;1.10;;
65769;SDS011;52512;47.650;8.578;2023-04-24T05:22:25;1.17;;;1.00;;
65769;SDS011;52512;47.650;8.578;2023-04-24T05:24:51;1.10;;;1.00;;
65769;SDS011;52512;47.650;8.578;2023-04-24T05:27:16;2.00;;;0.80;;
65769;SDS011;52512;47.650;8.578;2023-04-24T05:29:42;0.90;;;0.90;;
65769;SDS011;52512;47.650;8.578;2023-04-24T05:32:08;1.67;;;1.27;;
65769;SDS011;52512;47.650;8.578;2023-04-24T05:34:34;1.57;;;1.47;;
65769;SDS011;52512;47.650;8.578;2023-04-24T05:36:59;7.23;;;1.53;;
65769;SDS011;52512;47.650;8.578;2023-04-24T05:39:25;10.63;;;1.07;;
65769;SDS011;52512;47.650;8.578;2023-04-24T05:41:51;1.30;;;1.30;;
65769;SDS011;52512;47.650;8.578;2023-04-24T05:44:17;1.33;;;1.30;;
65769;SDS011;52512;47.650;8.578;2023-04-24T05:46:42;1.40;;;1.30;;
65769;SDS011;52512;47.650;8.578;2023-04-24T05:49:08;9.90;;;2.03;;
65769;SDS011;52512;47.650;8.578;2023-04-24T05:51:34;1.20;;;1.20;;
65769;SDS011;52512;47.650;8.578;2023-04-24T05:54:00;3.30;;;1.48;;
65769;SDS011;52512;47.650;8.578;2023-04-24T05:56:26;1.40;;;1.30;;
65769;SDS011;52512;47.650;8.578;2023-04-24T05:58:52;1.73;;;1.63;;
65769;SDS011;52512;47.650;8.578;2023-04-24T06:01:18;9.40;;;1.63;;
65769;SDS011;52512;47.650;8.578;2023-04-24T06:03:44;5.95;;;1.88;;
65769;SDS011;52512;47.650;8.578;2023-04-24T06:06:10;4.10;;;1.50;;
65769;SDS011;52512;47.650;8.578;2023-04-24T06:08:35;9.20;;;1.83;;
65769;SDS011;52512;47.650;8.578;2023-04-24T06:11:01;3.47;;;1.63;;
65769;SDS011;52512;47.650;8.578;2023-04-24T06:13:27;3.93;;;1.67;;
65769;SDS011;52512;47.650;8.578;2023-04-24T06:15:53;4.80;;;1.90;;
65769;SDS011;52512;47.650;8.578;2023-04-24T06:18:20;1.92;;;1.80;;
65769;SDS011;52512;47.650;8.578;2023-04-24T06:20:46;6.97;;;2.00;;
65769;SDS011;52512;47.650;8.578;2023-04-24T06:23:12;4.28;;;3.10;;
65769;SDS011;52512;47.650;8.578;2023-04-24T06:25:37;4.60;;;2.03;;
65769;SDS011;52512;47.650;8.578;2023-04-24T06:28:03;2.08;;;1.83;;
65769;SDS011;52512;47.650;8.578;2023-04-24T06:30:29;4.03;;;2.40;;
65769;SDS011;52512;47.650;8.578;2023-04-24T06:32:55;3.20;;;2.07;;
65769;SDS011;52512;47.650;8.578;2023-04-24T06:35:21;5.57;;;2.43;;
65769;SDS011;52512;47.650;8.578;2023-04-24T06:37:46;1.80;;;1.70;;
65769;SDS011;52512;47.650;8.578;2023-04-24T06:40:12;2.60;;;1.87;;
65769;SDS011;52512;47.650;8.578;2023-04-24T06:42:38;3.70;;;1.93;;
65769;SDS011;52512;47.650;8.578;2023-04-24T06:45:04;3.55;;;1.98;;
65769;SDS011;52512;47.650;8.578;2023-04-24T06:47:30;1.98;;;1.77;;
65769;SDS011;52512;47.650;8.578;2023-04-24T06:49:56;2.80;;;2.40;;
65769;SDS011;52512;47.650;8.578;2023-04-24T06:52:22;5.53;;;2.50;;
65769;SDS011;52512;47.650;8.578;2023-04-24T06:54:48;2.55;;;2.15;;
65769;SDS011;52512;47.650;8.578;2023-04-24T06:57:13;3.57;;;2.30;;
65769;SDS011;52512;47.650;8.578;2023-04-24T06:59:41;2.03;;;1.90;;
65769;SDS011;52512;47.650;8.578;2023-04-24T07:02:06;2.50;;;2.07;;
65769;SDS011;52512;47.650;8.578;2023-04-24T07:04:32;3.23;;;2.50;;
65769;SDS011;52512;47.650;8.578;2023-04-24T07:06:58;3.50;;;1.90;;
65769;SDS011;52512;47.650;8.578;2023-04-24T07:09:24;2.17;;;1.87;;
65769;SDS011;52512;47.650;8.578;2023-04-24T07:11:51;2.70;;;2.33;;
65769;SDS011;52512;47.650;8.578;2023-04-24T07:14:17;2.97;;;1.90;;
65769;SDS011;52512;47.650;8.578;2023-04-24T07:16:43;3.00;;;2.13;;
65769;SDS011;52512;47.650;8.578;2023-04-24T07:19:10;2.28;;;2.15;;
65769;SDS011;52512;47.650;8.578;2023-04-24T07:21:35;1.87;;;1.67;;
65769;SDS011;52512;47.650;8.578;2023-04-24T07:24:01;3.10;;;1.87;;
65769;SDS011;52512;47.650;8.578;2023-04-24T07:26:28;5.50;;;1.80;;
65769;SDS011;52512;47.650;8.578;2023-04-24T07:28:54;5.25;;;2.50;;
65769;SDS011;52512;47.650;8.578;2023-04-24T07:31:20;10.63;;;1.80;;
65769;SDS011;52512;47.650;8.578;2023-04-24T07:33:46;1.20;;;1.20;;
65769;SDS011;52512;47.650;8.578;2023-04-24T07:36:11;1.23;;;1.13;;
65769;SDS011;52512;47.650;8.578;2023-04-24T07:38:41;1.30;;;1.20;;
65769;SDS011;52512;47.650;8.578;2023-04-24T07:41:11;1.20;;;1.20;;
65769;SDS011;52512;47.650;8.578;2023-04-24T07:43:40;1.30;;;1.20;;
65769;SDS011;52512;47.650;8.578;2023-04-24T07:46:07;5.05;;;2.08;;
65769;SDS011;52512;47.650;8.578;2023-04-24T07:48:33;1.55;;;1.45;;
65769;SDS011;52512;47.650;8.578;2023-04-24T07:50:59;2.30;;;1.27;;
65769;SDS011;52512;47.650;8.578;2023-04-24T07:53:24;0.90;;;0.90;;
65769;SDS011;52512;47.650;8.578;2023-04-24T07:55:50;3.47;;;1.30;;
65769;SDS011;52512;47.650;8.578;2023-04-24T07:58:16;1.60;;;1.50;;
65769;SDS011;52512;47.650;8.578;2023-04-24T08:00:42;1.17;;;1.07;;
65769;SDS011;52512;47.650;8.578;2023-04-24T08:03:07;7.43;;;1.60;;
65769;SDS011;52512;47.650;8.578;2023-04-24T08:05:33;2.30;;;2.03;;
65769;SDS011;52512;47.650;8.578;2023-04-24T08:07:59;7.03;;;1.73;;
65769;SDS011;52512;47.650;8.578;2023-04-24T08:10:24;1.87;;;1.77;;
65769;SDS011;52512;47.650;8.578;2023-04-24T08:12:50;1.90;;;1.70;;
65769;SDS011;52512;47.650;8.578;2023-04-24T08:15:16;1.87;;;1.60;;
65769;SDS011;52512;47.650;8.578;2023-04-24T08:17:42;14.05;;;2.28;;
65769;SDS011;52512;47.650;8.578;2023-04-24T08:20:11;2.47;;;1.70;;
65769;SDS011;52512;47.650;8.578;2023-04-24T08:22:40;2.00;;;1.80;;
65769;SDS011;52512;47.650;8.578;2023-04-24T08:25:07;2.67;;;1.92;;
65769;SDS011;52512;47.650;8.578;2023-04-24T08:27:33;3.47;;;1.77;;
65769;SDS011;52512;47.650;8.578;2023-04-24T08:30:04;3.75;;;2.15;;
65769;SDS011;52512;47.650;8.578;2023-04-24T08:32:30;6.93;;;1.70;;
65769;SDS011;52512;47.650;8.578;2023-04-24T08:34:56;10.00;;;2.23;;
65769;SDS011;52512;47.650;8.578;2023-04-24T08:37:22;2.55;;;1.75;;
65769;SDS011;52512;47.650;8.578;2023-04-24T08:39:48;3.55;;;2.30;;
65769;SDS011;52512;47.650;8.578;2023-04-24T08:42:15;3.08;;;2.05;;
65769;SDS011;52512;47.650;8.578;2023-04-24T08:44:42;8.98;;;1.75;;
65769;SDS011;52512;47.650;8.578;2023-04-24T08:47:08;12.55;;;2.42;;
65769;SDS011;52512;47.650;8.578;2023-04-24T08:49:34;3.67;;;2.47;;
65769;SDS011;52512;47.650;8.578;2023-04-24T08:52:01;3.55;;;1.90;;
65769;SDS011;52512;47.650;8.578;2023-04-24T08:54:28;5.30;;;3.10;;
65769;SDS011;52512;47.650;8.578;2023-04-24T08:56:54;2.33;;;2.10;;
65769;SDS011;52512;47.650;8.578;2023-04-24T08:59:25;1.95;;;1.85;;
65769;SDS011;52512;47.650;8.578;2023-04-24T09:01:51;4.50;;;1.77;;
65769;SDS011;52512;47.650;8.578;2023-04-24T09:04:18;3.75;;;2.03;;
65769;SDS011;52512;47.650;8.578;2023-04-24T09:06:47;6.20;;;2.20;;
65769;SDS011;52512;47.650;8.578;2023-04-24T09:09:14;4.72;;;2.33;;
65769;SDS011;52512;47.650;8.578;2023-04-24T09:11:42;4.75;;;1.95;;
65769;SDS011;52512;47.650;8.578;2023-04-24T09:14:09;2.00;;;1.90;;
65769;SDS011;52512;47.650;8.578;2023-04-24T09:16:35;1.50;;;1.40;;
65769;SDS011;52512;47.650;8.578;2023-04-24T09:19:01;1.97;;;1.60;;
65769;SDS011;52512;47.650;8.578;2023-04-24T09:21:31;6.47;;;1.70;;
65769;SDS011;52512;47.650;8.578;2023-04-24T09:23:58;6.80;;;1.75;;
65769;SDS011;52512;47.650;8.578;2023-04-24T09:26:34;3.55;;;2.00;;
65769;SDS011;52512;47.650;8.578;2023-04-24T09:29:01;3.35;;;2.55;;
65769;SDS011;52512;47.650;8.578;2023-04-24T09:31:28;3.78;;;1.88;;
65769;SDS011;52512;47.650;8.578;2023-04-24T09:36:27;5.80;;;2.05;;
65769;SDS011;52512;47.650;8.578;2023-04-24T09:38:57;1.55;;;1.45;;
65769;SDS011;52512;47.650;8.578;2023-04-24T09:41:24;2.45;;;1.80;;
65769;SDS011;52512;47.650;8.578;2023-04-24T09:43:50;11.80;;;2.67;;
65769;SDS011;52512;47.650;8.578;2023-04-24T09:46:18;2.72;;;1.92;;
65769;SDS011;52512;47.650;8.578;2023-04-24T09:48:43;5.50;;;1.90;;
65769;SDS011;52512;47.650;8.578;2023-04-24T09:51:09;9.33;;;1.87;;
65769;SDS011;52512;47.650;8.578;2023-04-24T09:53:37;2.28;;;2.08;;
65769;SDS011;52512;47.650;8.578;2023-04-24T09:56:09;4.50;;;1.85;;
65769;SDS011;52512;47.650;8.578;2023-04-24T09:58:37;5.65;;;2.17;;
65769;SDS011;52512;47.650;8.578;2023-04-24T10:01:03;1.90;;;1.73;;
65769;SDS011;52512;47.650;8.578;2023-04-24T10:03:32;4.43;;;1.80;;
65769;SDS011;52512;47.650;8.578;2023-04-24T10:05:59;3.67;;;1.90;;
65769;SDS011;52512;47.650;8.578;2023-04-24T10:08:25;1.88;;;1.77;;
65769;SDS011;52512;47.650;8.578;2023-04-24T10:10:51;4.43;;;1.55;;
65769;SDS011;52512;47.650;8.578;2023-04-24T10:13:17;3.45;;;2.25;;
65769;SDS011;52512;47.650;8.578;2023-04-24T10:15:43;2.60;;;1.90;;
65769;SDS011;52512;47.650;8.578;2023-04-24T10:18:10;2.10;;;1.77;;
65769;SDS011;52512;47.650;8.578;2023-04-24T10:20:37;12.63;;;2.08;;
65769;SDS011;52512;47.650;8.578;2023-04-24T10:23:04;6.47;;;2.25;;
65769;SDS011;52512;47.650;8.578;2023-04-24T10:25:31;1.73;;;1.63;;
65769;SDS011;52512;47.650;8.578;2023-04-24T10:27:59;2.05;;;1.90;;
65769;SDS011;52512;47.650;8.578;2023-04-24T10:30:29;2.00;;;1.80;;
65769;SDS011;52512;47.650;8.578;2023-04-24T10:32:59;10.57;;;1.90;;
65769;SDS011;52512;47.650;8.578;2023-04-24T10:35:32;1.88;;;1.77;;
65769;SDS011;52512;47.650;8.578;2023-04-24T10:38:11;4.95;;;1.92;;
65769;SDS011;52512;47.650;8.578;2023-04-24T10:40:38;3.08;;;1.77;;
65769;SDS011;52512;47.650;8.578;2023-04-24T10:43:05;3.03;;;1.77;;
65769;SDS011;52512;47.650;8.578;2023-04-24T10:45:33;3.33;;;1.60;;
65769;SDS011;52512;47.650;8.578;2023-04-24T10:48:03;3.90;;;2.05;;
65769;SDS011;52512;47.650;8.578;2023-04-24T10:50:44;2.35;;;2.05;;
65769;SDS011;52512;47.650;8.578;2023-04-24T10:53:13;6.88;;;1.88;;
65769;SDS011;52512;47.650;8.578;2023-04-24T10:55:46;5.50;;;1.70;;
65769;SDS011;52512;47.650;8.578;2023-04-24T10:58:14;4.25;;;2.10;;
65769;SDS011;52512;47.650;8.578;2023-04-24T11:00:42;1.48;;;1.38;;
65769;SDS011;52512;47.650;8.578;2023-04-24T11:03:29;2.03;;;1.70;;
65769;SDS011;52512;47.650;8.578;2023-04-24T11:06:00;3.45;;;1.70;;
65769;SDS011;52512;47.650;8.578;2023-04-24T11:08:44;5.22;;;1.90;;
65769;SDS011;52512;47.650;8.578;2023-04-24T11:11:14;4.15;;;2.08;;
65769;SDS011;52512;47.650;8.578;2023-04-24T11:16:20;1.65;;;1.55;;
65769;SDS011;52512;47.650;8.578;2023-04-24T11:19:04;5.20;;;1.50;;
65769;SDS011;52512;47.650;8.578;2023-04-24T11:34:53;2.47;;;1.55;;
65769;SDS011;52512;47.650;8.578;2023-04-24T11:37:33;1.75;;;1.50;;
65769;SDS011;52512;47.650;8.578;2023-04-24T11:40:01;3.45;;;1.70;;
65769;SDS011;52512;47.650;8.578;2023-04-24T11:42:28;13.55;;;2.10;;
65769;SDS011;52512;47.650;8.578;2023-04-24T11:44:58;5.22;;;1.95;;
65769;SDS011;52512;47.650;8.578;2023-04-24T11:47:31;11.88;;;1.90;;
65769;SDS011;52512;47.650;8.578;2023-04-24T11:49:59;4.25;;;2.25;;
65769;SDS011;52512;47.650;8.578;2023-04-24T11:52:25;3.55;;;1.65;;
65769;SDS011;52512;47.650;8.578;2023-04-24T11:54:51;1.35;;;1.25;;
65769;SDS011;52512;47.650;8.578;2023-04-24T11:57:21;5.73;;;1.97;;
65769;SDS011;52512;47.650;8.578;2023-04-24T11:59:48;3.83;;;1.80;;
65769;SDS011;52512;47.650;8.578;2023-04-24T12:02:25;7.43;;;1.52;;
65769;SDS011;52512;47.650;8.578;2023-04-24T12:04:52;2.78;;;1.75;;
65769;SDS011;52512;47.650;8.578;2023-04-24T12:07:19;3.15;;;1.90;;
65769;SDS011;52512;47.650;8.578;2023-04-24T12:09:57;2.63;;;2.00;;
65769;SDS011;52512;47.650;8.578;2023-04-24T12:12:34;3.15;;;1.95;;
65769;SDS011;52512;47.650;8.578;2023-04-24T12:15:00;1.70;;;1.60;;
65769;SDS011;52512;47.650;8.578;2023-04-24T12:17:31;1.65;;;1.55;;
65769;SDS011;52512;47.650;8.578;2023-04-24T12:19:58;1.67;;;1.58;;
65769;SDS011;52512;47.650;8.578;2023-04-24T12:22:25;3.38;;;1.90;;
65769;SDS011;52512;47.650;8.578;2023-04-24T12:27:31;3.90;;;1.55;;
65769;SDS011;52512;47.650;8.578;2023-04-24T12:30:01;9.02;;;2.38;;
65769;SDS011;52512;47.650;8.578;2023-04-24T12:32:29;3.15;;;1.92;;
65769;SDS011;52512;47.650;8.578;2023-04-24T12:34:55;6.17;;;2.23;;
65769;SDS011;52512;47.650;8.578;2023-04-24T12:37:25;2.20;;;2.00;;
65769;SDS011;52512;47.650;8.578;2023-04-24T12:42:29;1.45;;;1.35;;
65769;SDS011;52512;47.650;8.578;2023-04-24T12:44:56;3.33;;;1.75;;
65769;SDS011;52512;47.650;8.578;2023-04-24T12:47:27;2.00;;;1.67;;
65769;SDS011;52512;47.650;8.578;2023-04-24T12:49:53;3.08;;;1.88;;
65769;SDS011;52512;47.650;8.578;2023-04-24T12:52:20;3.45;;;2.40;;
65769;SDS011;52512;47.650;8.578;2023-04-24T12:54:47;1.70;;;1.60;;
65769;SDS011;52512;47.650;8.578;2023-04-24T12:57:13;3.70;;;1.37;;
65769;SDS011;52512;47.650;8.578;2023-04-24T12:59:40;6.78;;;1.95;;
65769;SDS011;52512;47.650;8.578;2023-04-24T13:02:06;1.73;;;1.63;;
65769;SDS011;52512;47.650;8.578;2023-04-24T13:04:32;6.88;;;1.70;;
65769;SDS011;52512;47.650;8.578;2023-04-24T13:06:58;5.63;;;2.00;;
65769;SDS011;52512;47.650;8.578;2023-04-24T13:09:23;2.33;;;2.13;;
65769;SDS011;52512;47.650;8.578;2023-04-24T13:11:49;1.63;;;1.45;;
65769;SDS011;52512;47.650;8.578;2023-04-24T13:14:15;1.52;;;1.42;;
65769;SDS011;52512;47.650;8.578;2023-04-24T13:16:41;2.53;;;2.33;;
65769;SDS011;52512;47.650;8.578;2023-04-24T13:19:07;2.63;;;2.10;;
65769;SDS011;52512;47.650;8.578;2023-04-24T13:21:32;2.03;;;1.70;;
65769;SDS011;52512;47.650;8.578;2023-04-24T13:23:58;6.13;;;2.33;;
65769;SDS011;52512;47.650;8.578;2023-04-24T13:26:24;4.87;;;1.50;;
65769;SDS011;52512;47.650;8.578;2023-04-24T13:28:50;5.63;;;2.40;;
65769;SDS011;52512;47.650;8.578;2023-04-24T13:31:15;1.73;;;1.57;;
65769;SDS011;52512;47.650;8.578;2023-04-24T13:33:41;12.95;;;1.80;;
65769;SDS011;52512;47.650;8.578;2023-04-24T13:36:07;4.23;;;1.90;;
65769;SDS011;52512;47.650;8.578;2023-04-24T13:38:33;4.63;;;2.20;;
65769;SDS011;52512;47.650;8.578;2023-04-24T13:40:59;5.10;;;2.30;;
65769;SDS011;52512;47.650;8.578;2023-04-24T13:43:25;2.67;;;1.53;;
65769;SDS011;52512;47.650;8.578;2023-04-24T13:45:51;2.77;;;1.57;;
65769;SDS011;52512;47.650;8.578;2023-04-24T13:48:16;4.63;;;1.87;;
65769;SDS011;52512;47.650;8.578;2023-04-24T13:50:42;2.00;;;1.80;;
65769;SDS011;52512;47.650;8.578;2023-04-24T13:53:09;2.22;;;1.48;;
65769;SDS011;52512;47.650;8.578;2023-04-24T13:55:35;2.00;;;1.40;;
65769;SDS011;52512;47.650;8.578;2023-04-24T13:58:01;4.68;;;1.60;;
65769;SDS011;52512;47.650;8.578;2023-04-24T14:00:27;1.88;;;1.77;;
65769;SDS011;52512;47.650;8.578;2023-04-24T14:02:53;1.75;;;1.65;;
65769;SDS011;52512;47.650;8.578;2023-04-24T14:05:19;2.73;;;1.90;;
65769;SDS011;52512;47.650;8.578;2023-04-24T14:07:46;6.10;;;2.05;;
65769;SDS011;52512;47.650;8.578;2023-04-24T14:10:12;2.00;;;1.80;;
65769;SDS011;52512;47.650;8.578;2023-04-24T14:12:38;3.17;;;2.00;;
65769;SDS011;52512;47.650;8.578;2023-04-24T14:15:04;4.67;;;1.60;;
65769;SDS011;52512;47.650;8.578;2023-04-24T14:17:30;3.08;;;1.70;;
65769;SDS011;52512;47.650;8.578;2023-04-24T14:19:56;1.73;;;1.63;;
65769;SDS011;52512;47.650;8.578;2023-04-24T14:22:22;6.37;;;2.23;;
65769;SDS011;52512;47.650;8.578;2023-04-24T14:24:47;10.20;;;1.40;;
65769;SDS011;52512;47.650;8.578;2023-04-24T14:27:13;3.23;;;1.60;;
65769;SDS011;52512;47.650;8.578;2023-04-24T14:29:39;11.10;;;1.90;;
65769;SDS011;52512;47.650;8.578;2023-04-24T14:32:05;10.17;;;1.70;;
65769;SDS011;52512;47.650;8.578;2023-04-24T14:34:31;2.90;;;1.73;;
65769;SDS011;52512;47.650;8.578;2023-04-24T14:36:56;9.40;;;2.33;;
65769;SDS011;52512;47.650;8.578;2023-04-24T14:39:23;4.03;;;1.42;;
65769;SDS011;52512;47.650;8.578;2023-04-24T14:41:49;3.00;;;1.60;;
65769;SDS011;52512;47.650;8.578;2023-04-24T14:44:15;2.50;;;1.77;;
65769;SDS011;52512;47.650;8.578;2023-04-24T14:46:41;4.70;;;2.20;;
65769;SDS011;52512;47.650;8.578;2023-04-24T14:49:07;2.13;;;1.83;;
65769;SDS011;52512;47.650;8.578;2023-04-24T14:51:35;9.80;;;1.85;;
65769;SDS011;52512;47.650;8.578;2023-04-24T14:54:01;2.08;;;1.90;;
65769;SDS011;52512;47.650;8.578;2023-04-24T14:56:26;4.57;;;2.10;;
65769;SDS011;52512;47.650;8.578;2023-04-24T14:58:52;9.40;;;2.27;;
65769;SDS011;52512;47.650;8.578;2023-04-24T15:01:18;2.43;;;1.47;;
65769;SDS011;52512;47.650;8.578;2023-04-24T15:03:43;2.37;;;2.17;;
65769;SDS011;52512;47.650;8.578;2023-04-24T15:06:09;6.20;;;1.80;;
65769;SDS011;52512;47.650;8.578;2023-04-24T15:08:35;1.83;;;1.53;;